Latest  Newer  Older  Last 2 hours slideshow  Last 24 hours slideshow  Refresh every 5 minutes 
Current image  Latest image  Rain/snow radar  Cloud coverage sat images 

All time is UTC (add 2 hours to UTC in wintertime, 3 hours to UTC in DST for Latvia local time)

2019/08/22 09:20 EVRA 220920Z 26004KT 210V360 9999 SCT030 20/14 Q1027 NOSIG
2019/08/22 09:20 EVLA 220920Z AUTO 26009KT 230V300 9999 SCT030/// SCT035/// 19/11 Q1029
2019/08/22 09:20 EVVA 220920Z AUTO 25012KT 9999 SCT031 BKN039 18/11 Q1028
2019/08/22 09:20 EYKA 220920Z 29005KT 220V010 9999 BKN028 20/12 Q1029
2019/08/22 09:20 EYPA 220920Z 28005KT 180V340 9999 FEW031 20/11 Q1030
2019/08/22 09:20 EYSA 220920Z 28008KT 9999 FEW031 BKN041 19/12 Q1029 BLU NOSIG
2019/08/22 09:20 EYVI 220920Z 31007KT 290V360 9999 BKN025 18/11 Q1030 NOSIG
2019/08/22 08:50 EEKA 220850Z 28006KT 9999 SCT023 20/13 Q1024
2019/08/22 08:50 EEKE 220850Z 26008KT 210V300 9999 BKN03OTCU 19/12 Q1026
2019/08/22 08:50 EEPU 220850Z 24009KT 9999 SCT/// 19/12 Q1025
2019/08/22 09:20 EETN 220920Z 26014KT 9999 SCT037 19/12 Q1023 NOSIG
2019/08/22 08:50 EETU 220850Z 23009KT 200V270 9999 SCT010 BKN016 18/15 Q1025
   RIGA AIRPORT     EVRA               56 55N  023 58E   10   X     T          6 LV
   LIEPAJA INTL     EVLA        26406  56 31N  021 06E    4   X                8 LV
   VENTPILS         EVVA               57 21N  021 33E    6   X                8 LV
   KAUNAS           EYKA               54 54N  023 55E   77   X     T          6 LT
   PALANGA INTL     EYPA               55 55N  021 03E   10   X                6 LT
   SIAULIAI INTL    EYSA               55 54N  023 24E  135   X     T          6 LT
   VILNIUS INTL     EYVI        26730  54 38N  025 17E  197   X     T          6 LT
   KARDLA           EEKA        26116  58 59N  022 50E    4   X                8 EE
   KURESSAARE       EEKE               58 14N  022 31E    4   X                8 EE
   PARNU            EEPU               58 25N  024 28E   14   X                8 EE
   TALLINN          EETN        26038  59 24N  024 49E   40   X     T          8 EE
   TARTU            EETU               58 19N  026 41E   67   X                8 EE